Time;durP1;ratioP1;P1;durP2;ratioP2;P2;SDS_P1;SDS_P2;PMS_P1;PMS_P2;Temp;Humidity;BMP_temperature;BMP_pressure;BME280_temperature;BME280_humidity;BME280_pressure;Samples;Min_cycle;Max_cycle;Signal;HPM_P1;HPM_P2
2022/06/03 00:00:32;;;;;;;26.00;15.73;;;;;;;10.74;73.29;101835.66;4938448;29;20051;-48
2022/06/03 00:03:20;;;;;;;21.13;15.20;;;;;;;10.68;72.84;101833.69;4937719;29;20035;-47
2022/06/03 00:06:01;;;;;;;22.98;15.75;;;;;;;10.61;74.01;101831.63;4938484;29;20024;-50
2022/06/03 00:08:47;;;;;;;23.60;16.13;;;;;;;10.62;73.41;101828.25;4938442;29;20063;-47
2022/06/03 00:11:21;;;;;;;21.65;15.68;;;;;;;10.56;75.00;101833.13;4937326;29;20059;-44
2022/06/03 00:14:23;;;;;;;24.25;16.27;;;;;;;10.51;75.20;101835.50;4938361;29;20031;-45
2022/06/03 00:17:03;;;;;;;26.75;16.08;;;;;;;10.46;75.48;101837.88;4926658;29;20043;-45
2022/06/03 00:19:50;;;;;;;23.05;16.67;;;;;;;10.43;74.99;101831.69;4937974;29;20028;-46
2022/06/03 00:22:39;;;;;;;30.20;16.52;;;;;;;10.41;74.69;101830.75;4937976;29;20054;-48
2022/06/03 00:25:41;;;;;;;24.02;16.27;;;;;;;10.38;74.82;101826.34;4937296;29;20032;-47
2022/06/03 00:28:12;;;;;;;25.50;17.13;;;;;;;10.34;75.34;101833.00;4938047;29;20046;-48
2022/06/03 00:30:53;;;;;;;24.73;15.52;;;;;;;10.38;74.57;101834.06;4937842;29;20039;-47
2022/06/03 00:33:55;;;;;;;24.33;16.52;;;;;;;10.39;74.23;101830.66;4937131;29;20094;-48
2022/06/03 00:36:38;;;;;;;23.65;17.00;;;;;;;10.43;74.32;101827.44;4937723;29;20039;-47
2022/06/03 00:39:09;;;;;;;21.52;16.40;;;;;;;10.44;75.74;101826.59;4936886;29;20030;-46
2022/06/03 00:41:59;;;;;;;23.67;15.70;;;;;;;10.44;74.57;101820.56;4937526;29;20519;-47
2022/06/03 00:44:53;;;;;;;31.60;16.40;;;;;;;10.44;74.24;101818.88;4937694;29;20038;-46
2022/06/03 00:47:48;;;;;;;22.48;15.98;;;;;;;10.46;74.18;101824.13;4936965;29;20039;-46
2022/06/03 00:50:34;;;;;;;26.13;17.17;;;;;;;10.44;74.40;101823.16;4937455;29;20036;-49
2022/06/03 00:53:18;;;;;;;25.85;16.77;;;;;;;10.48;74.53;101812.16;4936624;29;20024;-44
2022/06/03 00:56:08;;;;;;;24.52;16.23;;;;;;;10.46;75.30;101822.41;4937534;29;20038;-44
2022/06/03 00:58:48;;;;;;;23.73;16.63;;;;;;;10.46;75.18;101818.97;4937389;29;20510;-46
2022/06/03 01:01:23;;;;;;;25.30;17.25;;;;;;;10.46;75.34;101816.38;4936620;29;20039;-47
2022/06/03 01:03:59;;;;;;;25.20;16.35;;;;;;;10.43;74.90;101817.13;4937445;29;20035;-45
2022/06/03 01:06:33;;;;;;;23.40;16.23;;;;;;;10.46;74.41;101812.09;4936559;29;20024;-47
2022/06/03 01:09:25;;;;;;;23.10;16.95;;;;;;;10.50;73.84;101818.28;4936983;29;20064;-46
2022/06/03 01:12:27;;;;;;;27.38;17.70;;;;;;;10.51;74.00;101809.75;4936951;29;20472;-46
2022/06/03 01:15:32;;;;;;;24.80;16.48;;;;;;;10.53;73.95;101808.09;4936355;29;20086;-45
2022/06/03 01:18:21;;;;;;;26.50;17.20;;;;;;;10.57;73.82;101809.13;4936800;29;20063;-47
2022/06/03 01:21:20;;;;;;;24.63;16.80;;;;;;;10.63;73.22;101804.25;4936237;29;20023;-46
2022/06/03 01:24:31;;;;;;;24.95;16.95;;;;;;;10.67;73.61;101798.41;4936670;29;20047;-46
2022/06/03 01:27:47;;;;;;;24.67;17.65;;;;;;;10.70;73.93;101801.09;4936714;29;20028;-45
2022/06/03 01:30:19;;;;;;;23.75;16.77;;;;;;;10.71;74.16;101797.72;4936720;29;20024;-44
2022/06/03 01:32:55;;;;;;;26.33;17.35;;;;;;;10.75;73.77;101791.00;4936836;29;20103;-45
2022/06/03 01:35:57;;;;;;;26.75;17.10;;;;;;;10.78;72.88;101789.47;4936042;29;20079;-46
2022/06/03 01:38:50;;;;;;;23.38;16.83;;;;;;;10.79;74.22;101786.03;4936650;29;20149;-46
2022/06/03 01:41:18;;;;;;;24.25;16.70;;;;;;;10.76;74.00;101788.50;4936456;29;20472;-44
2022/06/03 01:43:52;;;;;;;23.90;16.52;;;;;;;10.74;73.76;101777.22;4935863;29;20115;-45
2022/06/03 01:46:25;;;;;;;24.17;17.02;;;;;;;10.73;73.98;101783.22;4936593;29;20058;-48
2022/06/03 01:49:13;;;;;;;25.40;18.23;;;;;;;10.67;75.65;101775.19;4935447;29;20067;-46
2022/06/03 01:51:58;;;;;;;23.63;16.73;;;;;;;10.66;74.22;101773.44;4933284;29;20039;-47
2022/06/03 01:54:39;;;;;;;26.88;18.63;;;;;;;10.65;73.84;101769.09;4936507;29;20028;-47
2022/06/03 01:57:19;;;;;;;30.40;17.83;;;;;;;10.65;74.34;101771.66;4935582;29;20119;-48
2022/06/03 01:59:53;;;;;;;25.52;17.25;;;;;;;10.65;75.21;101776.81;4935945;29;20066;-45
2022/06/03 02:02:55;;;;;;;23.92;16.98;;;;;;;10.64;74.11;101772.47;4936331;29;20034;-45
2022/06/03 02:05:44;;;;;;;24.88;16.88;;;;;;;10.62;74.02;101768.97;4936193;29;20024;-46
2022/06/03 02:08:47;;;;;;;27.48;17.17;;;;;;;10.61;74.24;101774.94;4936266;29;20098;-46
2022/06/03 02:11:57;;;;;;;25.73;17.55;;;;;;;10.59;74.15;101769.72;4935299;29;20435;-46
2022/06/03 02:14:34;;;;;;;29.30;17.75;;;;;;;10.63;75.18;101765.56;4936331;29;20036;-47
2022/06/03 02:17:26;;;;;;;25.42;17.42;;;;;;;10.58;74.54;101769.66;4935401;29;20094;-46
2022/06/03 02:20:26;;;;;;;27.52;17.83;;;;;;;10.54;74.79;101764.34;4935853;29;20102;-45
2022/06/03 02:23:21;;;;;;;26.67;18.05;;;;;;;10.49;74.87;101755.53;4935747;29;20046;-44
2022/06/03 02:26:21;;;;;;;27.38;17.27;;;;;;;10.47;74.95;101767.47;4935107;29;20091;-46
2022/06/03 02:32:54;;;;;;;26.02;18.50;;;;;;;10.38;75.60;101756.75;4935258;29;20491;-45
2022/06/03 02:35:29;;;;;;;28.50;18.20;;;;;;;10.34;75.99;101753.13;4935672;29;20472;-44
2022/06/03 02:38:06;;;;;;;31.02;18.05;;;;;;;10.39;75.24;101761.06;4935110;29;20036;-44
2022/06/03 02:40:52;;;;;;;25.80;17.77;;;;;;;10.36;74.91;101760.94;4935870;29;20028;-45
2022/06/03 02:43:38;;;;;;;32.42;19.75;;;;;;;10.35;75.21;101756.56;4935634;29;20106;-48
2022/06/03 02:46:14;;;;;;;24.75;17.52;;;;;;;10.34;76.02;101755.69;4935090;29;20034;-46
2022/06/03 02:48:59;;;;;;;26.73;18.50;;;;;;;10.33;75.49;101755.63;4935520;29;20039;-49
2022/06/03 02:51:33;;;;;;;26.65;18.73;;;;;;;10.26;76.61;101740.69;4935650;29;20042;-49
2022/06/03 02:54:20;;;;;;;27.10;18.58;;;;;;;10.26;75.87;101743.28;4934840;29;20028;-46
2022/06/03 02:57:30;;;;;;;28.48;18.90;;;;;;;10.24;75.45;101739.72;4935507;29;20024;-46
2022/06/03 03:00:19;;;;;;;27.75;17.77;;;;;;;10.21;75.95;101743.97;4934650;29;20436;-47
2022/06/03 03:02:53;;;;;;;26.20;18.38;;;;;;;10.15;77.29;101740.22;4935479;29;20034;-48
2022/06/03 03:05:37;;;;;;;28.40;19.23;;;;;;;10.16;76.88;101745.44;4935572;29;20035;-48
2022/06/03 03:08:18;;;;;;;28.42;19.42;;;;;;;10.18;76.95;101748.09;4934568;29;20063;-47
2022/06/03 03:10:55;;;;;;;29.23;18.48;;;;;;;10.18;77.68;101748.94;4935241;28;20476;-47
2022/06/03 03:13:46;;;;;;;30.45;20.58;;;;;;;10.13;76.71;101757.28;4938467;29;20414;-48
2022/06/03 03:16:36;;;;;;;28.30;19.35;;;;;;;10.12;77.34;101759.00;4939111;29;20095;-47
2022/06/03 03:19:27;;;;;;;28.40;18.25;;;;;;;10.07;76.39;101749.28;4938938;29;20383;-44
2022/06/03 03:22:17;;;;;;;29.67;18.75;;;;;;;10.05;77.50;101746.63;4938172;29;20027;-46
2022/06/03 03:25:16;;;;;;;29.60;18.88;;;;;;;10.03;77.03;101741.41;4938956;29;20112;-45
2022/06/03 03:27:53;;;;;;;26.58;17.92;;;;;;;9.99;77.71;101733.47;4938258;29;20051;-48
2022/06/03 03:30:48;;;;;;;30.17;19.90;;;;;;;9.98;77.28;101734.28;4939002;29;20027;-47
2022/06/03 03:33:42;;;;;;;29.75;20.20;;;;;;;9.95;77.00;101735.00;4938815;29;20090;-44
2022/06/03 03:36:44;;;;;;;29.42;20.48;;;;;;;9.93;77.39;101731.50;4938332;29;20036;-44
2022/06/03 03:39:31;;;;;;;29.15;19.95;;;;;;;9.88;78.49;101732.97;4938782;29;20117;-47
2022/06/03 03:42:36;;;;;;;31.83;21.08;;;;;;;9.86;77.97;101730.34;4937924;29;20543;-49
2022/06/03 03:45:52;;;;;;;32.92;21.88;;;;;;;9.83;77.62;101725.03;4938664;29;20062;-47
2022/06/03 03:48:38;;;;;;;34.03;21.80;;;;;;;9.78;78.67;101726.50;4916486;29;20640;-46
2022/06/03 03:51:22;;;;;;;30.42;20.85;;;;;;;9.75;78.49;101728.94;4937116;29;20055;-47
2022/06/03 03:54:06;;;;;;;32.85;21.30;;;;;;;9.75;78.17;101730.63;4938336;29;20032;-46
2022/06/03 03:56:44;;;;;;;33.03;22.55;;;;;;;9.72;79.20;101727.13;4937953;29;20028;-45
2022/06/03 03:59:20;;;;;;;32.65;21.80;;;;;;;9.71;79.59;101732.19;4938451;29;20036;-48
2022/06/03 04:02:06;;;;;;;33.78;21.40;;;;;;;9.71;78.90;101729.63;4938318;29;20106;-47
2022/06/03 04:04:34;;;;;;;30.38;20.55;;;;;;;9.69;79.23;101726.09;4938361;29;20054;-48
2022/06/03 04:07:31;;;;;;;34.83;21.35;;;;;;;9.72;79.10;101726.22;4938291;29;20042;-48
2022/06/03 04:10:20;;;;;;;33.13;21.40;;;;;;;9.72;79.10;101721.97;4937556;29;20038;-48
2022/06/03 04:13:07;;;;;;;31.30;21.95;;;;;;;9.73;79.29;101722.84;4938152;29;20086;-49
2022/06/03 04:15:53;;;;;;;34.58;22.02;;;;;;;9.76;79.27;101716.94;4938392;29;20032;-48
2022/06/03 04:18:21;;;;;;;31.50;21.50;;;;;;;9.78;79.92;101712.75;4937439;29;20395;-46
2022/06/03 04:20:52;;;;;;;;;;;;;;;9.81;77.66;101716.38;4938292;29;20310;-47
2022/06/03 04:23:49;;;;;;;35.90;22.92;;;;;;;9.84;79.77;101716.50;4936647;29;19923;-48
2022/06/03 04:26:48;;;;;;;36.85;23.67;;;;;;;9.87;78.63;101716.63;4938086;29;20031;-45
2022/06/03 04:30:02;;;;;;;41.40;23.17;;;;;;;9.92;78.57;101716.84;4937770;29;20028;-44
2022/06/03 04:32:39;;;;;;;34.10;22.80;;;;;;;9.96;79.11;101710.16;4937307;29;20035;-45
2022/06/03 04:35:42;;;;;;;34.15;23.58;;;;;;;10.01;79.24;101703.53;4937749;29;20027;-49
2022/06/03 04:38:59;;;;;;;40.72;23.65;;;;;;;10.03;79.21;101712.19;4937170;29;20140;-46
2022/06/03 04:42:01;;;;;;;32.72;22.98;;;;;;;10.09;78.66;101707.31;4937803;29;20035;-48
2022/06/03 04:45:03;;;;;;;34.88;22.85;;;;;;;10.13;78.72;101713.50;4937113;29;20032;-48
2022/06/03 04:48:23;;;;;;;37.70;23.77;;;;;;;10.19;79.32;101719.81;4937555;29;20036;-48
2022/06/03 04:51:26;;;;;;;39.45;23.73;;;;;;;10.25;78.88;101718.31;4937343;29;20511;-46
2022/06/03 04:54:26;;;;;;;39.45;24.17;;;;;;;10.32;78.68;101725.53;4937433;29;20028;-46
2022/06/03 04:57:13;;;;;;;34.83;23.55;;;;;;;10.38;78.79;101731.00;4929323;29;20040;-47
2022/06/03 04:59:53;;;;;;;45.97;25.67;;;;;;;10.43;79.42;101734.66;4936566;29;20032;-48
2022/06/03 05:02:19;;;;;;;36.42;24.05;;;;;;;10.53;79.92;101728.19;4937272;29;20034;-49
2022/06/03 05:05:21;;;;;;;39.47;24.17;;;;;;;10.56;79.51;101719.72;4937158;29;20126;-49
2022/06/03 05:08:05;;;;;;;41.42;24.73;;;;;;;10.64;78.63;101723.50;4937069;29;20376;-46
2022/06/03 05:10:52;;;;;;;39.05;23.92;;;;;;;10.72;78.37;101727.31;4937194;29;20035;-47
2022/06/03 05:13:55;;;;;;;37.42;24.70;;;;;;;10.79;78.18;101726.72;4936237;29;20402;-46
2022/06/03 05:16:52;;;;;;;43.90;24.58;;;;;;;10.89;77.60;101727.16;4937009;29;20531;-47
2022/06/03 05:19:27;;;;;;;34.55;24.02;;;;;;;10.95;77.62;101724.81;4936829;29;20039;-49
2022/06/03 05:22:30;;;;;;;43.00;24.17;;;;;;;11.03;77.13;101723.44;4936749;29;20051;-49
2022/06/03 05:25:07;;;;;;;41.22;25.48;;;;;;;11.12;76.83;101718.66;4936784;29;20091;-47
2022/06/03 05:28:01;;;;;;;44.20;25.75;;;;;;;11.19;77.08;101715.53;4936029;29;20164;-49
2022/06/03 05:30:29;;;;;;;36.90;25.65;;;;;;;11.27;77.95;101713.25;4936768;29;20531;-49
2022/06/03 05:33:03;;;;;;;48.63;26.25;;;;;;;11.34;76.81;101711.81;4936633;29;20035;-48
2022/06/03 05:36:06;;;;;;;35.92;24.67;;;;;;;11.42;76.63;101706.94;4935223;29;20126;-47
2022/06/03 05:38:45;;;;;;;35.67;25.00;;;;;;;11.51;76.57;101709.88;4936871;29;20031;-44
2022/06/03 05:44:34;;;;;;;38.17;24.77;;;;;;;11.68;76.22;101714.03;4936802;29;20046;-47
2022/06/03 05:47:06;;;;;;;39.65;26.10;;;;;;;11.73;76.10;101714.19;4936500;29;20023;-47
2022/06/03 05:49:57;;;;;;;40.83;25.33;;;;;;;11.82;75.92;101719.69;4935845;29;20063;-48
2022/06/03 05:52:36;;;;;;;42.85;25.15;;;;;;;11.89;75.44;101709.63;4936426;29;20103;-47
2022/06/03 05:55:10;;;;;;;41.58;24.30;;;;;;;11.97;74.97;101710.84;4935942;29;20072;-47
2022/06/03 05:58:03;;;;;;;39.33;24.88;;;;;;;12.06;75.66;101712.84;4936299;29;20114;-46
2022/06/03 06:00:55;;;;;;;39.20;25.40;;;;;;;12.16;74.88;101710.69;4936278;29;20118;-49
2022/06/03 06:03:35;;;;;;;40.38;24.85;;;;;;;12.24;75.07;101712.66;4935434;29;20102;-46
2022/06/03 06:06:23;;;;;;;45.17;23.77;;;;;;;12.33;73.97;101710.41;4936248;29;20055;-48
2022/06/03 06:09:31;;;;;;;35.85;22.85;;;;;;;12.44;72.89;101716.84;4935228;29;20046;-47
2022/06/03 06:12:19;;;;;;;35.17;23.23;;;;;;;12.57;72.98;101712.13;4936069;29;20028;-49
2022/06/03 06:15:02;;;;;;;36.33;23.65;;;;;;;12.66;72.91;101717.63;4936005;29;20031;-46
2022/06/03 06:17:50;;;;;;;36.30;22.40;;;;;;;12.74;72.28;101711.00;4935345;29;20027;-48
2022/06/03 06:20:37;;;;;;;41.08;23.10;;;;;;;12.84;72.05;101713.06;4936042;29;20035;-48
2022/06/03 06:23:21;;;;;;;35.38;22.92;;;;;;;12.93;71.69;101711.63;4934978;29;20155;-48
2022/06/03 06:26:12;;;;;;;38.60;21.98;;;;;;;13.03;71.42;101724.06;4935739;29;20357;-47
2022/06/03 06:28:49;;;;;;;32.90;21.63;;;;;;;13.13;71.45;101717.47;4925699;29;20039;-46
2022/06/03 06:31:24;;;;;;;35.97;22.73;;;;;;;13.20;70.20;101716.84;4935163;29;20034;-49
2022/06/03 06:34:08;;;;;;;32.58;21.60;;;;;;;13.27;69.86;101712.75;4935682;29;20036;-45
2022/06/03 06:36:54;;;;;;;33.85;21.63;;;;;;;13.36;71.17;101713.03;4935688;29;20032;-47
2022/06/03 06:39:39;;;;;;;33.65;22.55;;;;;;;13.45;71.48;101718.56;4935755;29;20027;-47
2022/06/03 06:42:25;;;;;;;37.25;22.55;;;;;;;13.59;69.88;101718.09;4935691;29;20036;-48
2022/06/03 06:45:09;;;;;;;33.53;21.95;;;;;;;13.67;69.10;101714.03;4934836;29;20035;-48
2022/06/03 06:47:41;;;;;;;32.72;21.38;;;;;;;13.79;68.46;101711.81;4935595;29;20032;-45
2022/06/03 06:50:15;;;;;;;33.75;23.13;;;;;;;13.87;69.04;101700.81;4936029;29;20032;-45
2022/06/03 06:53:06;;;;;;;33.78;21.73;;;;;;;13.95;70.32;101712.28;4934795;29;20082;-49
2022/06/03 06:55:47;;;;;;;35.72;23.25;;;;;;;14.08;68.51;101706.63;4935756;29;20023;-47
2022/06/03 06:58:43;;;;;;;33.88;21.25;;;;;;;14.22;68.23;101708.75;4934880;29;20031;-48
2022/06/03 07:01:20;;;;;;;34.35;21.77;;;;;;;14.38;67.44;101710.03;4935482;29;20531;-47
2022/06/03 07:04:05;;;;;;;64.93;22.60;;;;;;;14.53;67.07;101709.59;4935519;29;20024;-47
2022/06/03 07:06:43;;;;;;;72.10;23.27;;;;;;;14.63;65.27;101707.28;4935057;29;20027;-47
2022/06/03 07:09:11;;;;;;;46.70;23.23;;;;;;;14.74;66.82;101712.78;4935300;29;20388;-48
2022/06/03 07:11:49;;;;;;;36.10;21.75;;;;;;;14.86;65.44;101713.94;4935359;29;20476;-48
2022/06/03 07:14:20;;;;;;;37.50;22.00;;;;;;;14.93;64.52;101711.53;4934796;29;20035;-46
2022/06/03 07:19:50;;;;;;;38.22;21.75;;;;;;;15.14;64.32;101706.03;4934886;29;20046;-45
2022/06/03 07:22:31;;;;;;;38.35;24.65;;;;;;;15.21;64.13;101703.56;4935000;29;20146;-45
2022/06/03 07:25:02;;;;;;;32.60;21.70;;;;;;;15.29;65.33;101704.63;4935357;29;20032;-45
2022/06/03 07:27:35;;;;;;;38.28;21.27;;;;;;;15.36;62.32;101703.91;4934650;29;20118;-48
2022/06/03 07:30:07;;;;;;;34.50;21.60;;;;;;;15.46;64.63;101698.09;4935344;29;20034;-48
2022/06/03 07:32:45;;;;;;;32.60;21.75;;;;;;;15.54;65.25;101695.66;4935191;29;20031;-45
2022/06/03 07:35:30;;;;;;;40.60;22.58;;;;;;;15.63;64.38;101697.59;4934633;29;20058;-45
2022/06/03 07:38:04;;;;;;;33.97;22.05;;;;;;;15.73;62.91;101696.09;4935053;29;20036;-45
2022/06/03 07:40:44;;;;;;;36.67;22.40;;;;;;;15.83;64.12;101702.38;4934689;29;20028;-46
2022/06/03 07:43:23;;;;;;;38.90;22.35;;;;;;;15.92;64.34;101707.78;4935080;29;20028;-48
2022/06/03 07:45:54;;;;;;;34.42;22.50;;;;;;;15.94;61.04;101706.97;4935255;29;20034;-45
2022/06/03 07:48:22;;;;;;;35.05;22.08;;;;;;;16.05;62.34;101693.31;4934439;29;20114;-45
2022/06/03 07:50:54;;;;;;;35.67;21.50;;;;;;;16.16;62.90;101699.63;4934795;29;20031;-48
2022/06/03 07:53:42;;;;;;;35.78;21.80;;;;;;;16.28;63.66;101693.78;4934984;29;20028;-45
2022/06/03 07:56:07;;;;;;;37.33;21.80;;;;;;;16.37;60.82;101686.19;4934475;29;20035;-48
2022/06/03 07:58:37;;;;;;;36.72;20.90;;;;;;;16.54;61.09;101683.00;4937476;29;20373;-47
2022/06/03 08:01:04;;;;;;;30.17;20.48;;;;;;;16.62;61.50;101684.03;4938415;29;20058;-45
2022/06/03 08:03:36;;;;;;;30.37;18.30;;;;;;;16.79;59.93;101690.38;4937762;29;20082;-45
2022/06/03 08:06:05;;;;;;;93.13;24.52;;;;;;;16.99;59.55;101691.63;4938140;29;20027;-47
2022/06/03 08:11:30;;;;;;;32.20;19.88;;;;;;;17.18;58.65;101687.59;4938472;29;20078;-46
2022/06/03 08:13:58;;;;;;;30.15;19.45;;;;;;;17.31;58.95;101676.50;4938168;29;20079;-45
2022/06/03 08:16:31;;;;;;;34.83;19.35;;;;;;;17.48;59.28;101668.94;4937408;29;20387;-48
2022/06/03 08:19:10;;;;;;;28.35;18.23;;;;;;;17.65;58.21;101668.28;4938185;29;20030;-45
2022/06/03 08:21:55;;;;;;;39.55;18.30;;;;;;;17.71;57.70;101658.81;4938062;29;20031;-47
2022/06/03 08:24:24;;;;;;;29.30;18.70;;;;;;;17.80;58.42;101658.06;4937281;29;20040;-47
2022/06/03 08:26:56;;;;;;;26.17;17.98;;;;;;;17.89;55.68;101654.69;4937776;29;20531;-46
2022/06/03 08:29:41;;;;;;;29.80;17.83;;;;;;;18.05;57.76;101651.44;4936985;29;20465;-47
2022/06/03 08:32:11;;;;;;;26.77;17.35;;;;;;;18.28;56.05;101653.41;4937863;29;20388;-46
2022/06/03 08:34:43;;;;;;;26.27;17.65;;;;;;;18.42;56.10;101650.94;4937789;29;20054;-45
2022/06/03 08:37:15;;;;;;;28.25;18.65;;;;;;;18.58;54.71;101657.22;4937008;29;20495;-44
2022/06/03 08:39:43;;;;;;;32.03;17.40;;;;;;;18.58;54.56;101659.81;4937833;29;20027;-46
2022/06/03 08:42:30;;;;;;;27.20;16.05;;;;;;;18.53;54.08;101657.16;4937578;29;20439;-48
2022/06/03 08:45:17;;;;;;;24.58;16.23;;;;;;;18.64;54.55;101667.69;4936822;29;20031;-47
2022/06/03 08:48:10;;;;;;;25.98;15.75;;;;;;;18.84;54.76;101661.78;4937352;29;20091;-45
2022/06/03 08:50:53;;;;;;;26.02;16.98;;;;;;;19.08;55.97;101654.19;4936850;29;20043;-46
2022/06/03 08:53:43;;;;;;;28.10;17.20;;;;;;;19.30;53.85;101656.94;4937492;29;20035;-44
2022/06/03 08:56:13;;;;;;;28.45;17.38;;;;;;;19.51;54.64;101663.13;4937233;29;20043;-48
2022/06/03 08:58:46;;;;;;;21.75;15.10;;;;;;;19.64;51.69;101661.47;4936751;29;20051;-49
2022/06/03 09:01:30;;;;;;;24.77;15.60;;;;;;;19.75;50.20;101659.78;4937416;29;20028;-48
2022/06/03 09:04:22;;;;;;;22.30;13.95;;;;;;;19.94;51.56;101655.53;4937195;29;20491;-48
2022/06/03 09:06:56;;;;;;;19.40;12.50;;;;;;;20.06;47.37;101662.53;4936464;29;20470;-44
2022/06/03 09:09:33;;;;;;;22.77;13.73;;;;;;;20.18;48.50;101662.59;4936131;29;20035;-48
2022/06/03 09:12:10;;;;;;;22.40;13.68;;;;;;;20.28;48.48;101666.09;4936513;29;20035;-48
2022/06/03 09:14:40;;;;;;;18.35;13.15;;;;;;;20.44;49.44;101655.66;4937142;29;20036;-46
2022/06/03 09:17:28;;;;;;;25.20;15.48;;;;;;;20.62;53.40;101653.06;4936966;29;20023;-47
2022/06/03 09:19:58;;;;;;;24.05;14.75;;;;;;;20.80;47.50;101657.47;4936279;29;20039;-47
2022/06/03 09:22:27;;;;;;;25.65;15.02;;;;;;;21.00;48.67;101652.19;4936821;29;20488;-48
2022/06/03 09:24:56;;;;;;;25.73;13.48;;;;;;;21.13;47.39;101652.19;4936778;29;20065;-46
2022/06/03 09:27:22;;;;;;;23.67;13.65;;;;;;;21.29;48.03;101651.31;4936011;29;20019;-46
2022/06/03 09:29:51;;;;;;;20.50;12.68;;;;;;;21.45;48.38;101653.91;4936613;29;20060;-48
2022/06/03 09:32:19;;;;;;;18.95;11.93;;;;;;;21.48;47.26;101652.09;4936592;29;20043;-49
2022/06/03 09:34:50;;;;;;;20.25;11.18;;;;;;;21.54;46.18;101649.50;4935836;29;20380;-44
2022/06/03 09:37:21;;;;;;;15.75;10.38;;;;;;;21.60;44.29;101651.25;4936668;29;20083;-45
2022/06/03 09:39:48;;;;;;;16.08;9.88;;;;;;;21.67;44.31;101650.34;4935671;29;20039;-48
2022/06/03 09:42:16;;;;;;;15.55;9.07;;;;;;;21.85;43.50;101656.41;4936382;29;20384;-47
2022/06/03 09:44:44;;;;;;;;;;;;;;;21.97;45.17;101648.44;4937005;29;20019;-45
2022/06/03 09:47:11;;;;;;;14.65;6.97;;;;;;;21.91;38.77;101638.00;4935738;29;19922;-47
2022/06/03 09:49:37;;;;;;;13.07;8.57;;;;;;;21.95;41.33;101629.22;4936889;29;20058;-47
2022/06/03 09:52:08;;;;;;;13.80;8.25;;;;;;;22.11;41.18;101635.25;4936317;29;20515;-46
2022/06/03 09:54:38;;;;;;;14.27;7.20;;;;;;;22.66;43.80;101644.53;4935728;29;20110;-49
2022/06/03 09:57:21;;;;;;;15.13;7.85;;;;;;;23.02;43.73;101642.47;4936216;29;20380;-47
2022/06/03 10:00:03;;;;;;;13.85;8.02;;;;;;;23.55;41.20;101638.44;4936082;29;20369;-47
2022/06/03 10:02:31;;;;;;;13.68;7.43;;;;;;;23.89;39.92;101641.50;4935391;29;20384;-48
2022/06/03 10:04:59;;;;;;;10.38;7.35;;;;;;;24.26;38.33;101629.59;4935999;29;20031;-47
2022/06/03 10:07:26;;;;;;;10.15;6.70;;;;;;;24.36;37.53;101627.72;4936280;29;20027;-45
2022/06/03 10:12:49;;;;;;;11.50;7.10;;;;;;;25.10;35.41;101629.09;4936224;29;20111;-46
2022/06/03 10:15:42;;;;;;;11.77;5.97;;;;;;;25.83;33.49;101627.69;4935351;29;20030;-48
2022/06/03 10:18:20;;;;;;;12.93;7.10;;;;;;;26.17;34.21;101619.91;4936107;29;20031;-47
2022/06/03 10:20:47;;;;;;;13.73;7.80;;;;;;;27.01;31.51;101618.72;4935431;29;20039;-48
2022/06/03 10:23:13;;;;;;;11.20;6.47;;;;;;;27.73;31.16;101622.88;4934951;29;20411;-47
2022/06/03 10:25:40;;;;;;;10.33;6.10;;;;;;;28.90;29.39;101623.56;4935754;29;20036;-46
2022/06/03 10:28:08;;;;;;;10.52;6.60;;;;;;;29.43;28.75;101611.94;4935986;29;20322;-48
2022/06/03 10:30:36;;;;;;;13.25;5.93;;;;;;;30.07;26.36;101612.19;4935143;29;20028;-48
2022/06/03 10:33:05;;;;;;;10.88;6.63;;;;;;;30.65;25.38;101608.91;4935895;29;20038;-47
2022/06/03 10:35:36;;;;;;;9.70;5.93;;;;;;;31.25;25.96;101600.97;4936004;29;20042;-48
2022/06/03 10:38:03;;;;;;;10.30;6.05;;;;;;;31.34;24.24;101602.34;4934993;29;20476;-46
2022/06/03 10:40:29;;;;;;;;;;;;;;;32.20;25.83;101601.88;4936094;29;20365;-48
2022/06/03 10:42:57;;;;;;;9.37;5.00;;;;;;;32.36;23.40;101600.16;4935634;29;19930;-49
2022/06/03 10:45:40;;;;;;;10.30;5.47;;;;;;;32.33;24.53;101595.84;4935654;29;20452;-49
2022/06/03 10:48:28;;;;;;;5.88;3.95;;;;;;;32.56;25.80;101608.97;4935568;29;20067;-49
2022/06/03 10:51:13;;;;;;;8.55;4.70;;;;;;;33.36;24.03;101604.78;4934688;29;20573;-50
2022/06/03 11:01:56;;;;;;;6.95;4.70;;;;;;;33.24;22.29;101590.25;4935628;29;20483;-49
2022/06/03 11:04:27;;;;;;;7.68;3.72;;;;;;;33.18;22.12;101595.91;4934808;29;20084;-48
2022/06/03 11:06:52;;;;;;;7.43;3.80;;;;;;;33.20;20.54;101585.19;4935326;29;20032;-49
2022/06/03 11:09:19;;;;;;;4.57;3.03;;;;;;;32.88;20.03;101585.94;4935262;29;20034;-49
2022/06/03 11:12:05;;;;;;;7.90;3.45;;;;;;;33.13;21.64;101580.16;4934569;29;20060;-46
2022/06/03 11:14:41;;;;;;;8.40;3.50;;;;;;;33.03;23.64;101589.63;4935279;29;20055;-49
2022/06/03 11:17:12;;;;;;;8.05;3.80;;;;;;;32.68;21.03;101586.97;4935470;29;20039;-49
2022/06/03 11:19:44;;;;;;;9.07;3.72;;;;;;;32.26;20.03;101582.91;4934617;29;20032;-49
2022/06/03 11:22:13;;;;;;;5.93;3.00;;;;;;;31.92;23.57;101579.19;4935112;29;20526;-48
2022/06/03 11:24:39;;;;;;;9.35;4.82;;;;;;;32.79;20.92;101579.28;4935219;29;20424;-50
2022/06/03 11:27:10;;;;;;;8.90;3.60;;;;;;;33.39;21.12;101572.56;4934560;29;20135;-49
2022/06/03 11:29:40;;;;;;;8.70;3.60;;;;;;;33.62;20.93;101571.28;4935086;29;20039;-47
2022/06/03 11:32:11;;;;;;;6.35;3.25;;;;;;;33.44;20.49;101559.81;4935316;29;20432;-50
2022/06/03 11:34:47;;;;;;;5.70;3.30;;;;;;;33.41;19.56;101559.97;4938859;29;20069;-47
2022/06/03 11:37:16;;;;;;;6.35;3.25;;;;;;;32.59;19.02;101564.31;4938941;29;20110;-50
2022/06/03 11:40:00;;;;;;;5.20;2.70;;;;;;;33.09;19.73;101567.06;4937887;29;20031;-49
2022/06/03 11:42:41;;;;;;;6.93;3.67;;;;;;;32.45;20.36;101567.69;4938835;29;20047;-49
2022/06/03 11:45:18;;;;;;;4.45;3.08;;;;;;;31.97;21.07;101569.19;4938664;29;20460;-50
2022/06/03 11:47:53;;;;;;;4.15;2.42;;;;;;;32.03;20.79;101563.53;4937911;29;20032;-50
2022/06/03 11:50:21;;;;;;;7.75;3.10;;;;;;;31.97;18.64;101553.19;4938557;29;20468;-46
2022/06/03 11:52:50;;;;;;;7.38;2.60;;;;;;;31.68;20.32;101558.16;4938463;29;20102;-49
2022/06/03 11:55:17;;;;;;;5.72;2.88;;;;;;;32.42;20.12;101559.84;4937695;29;20031;-49
2022/06/03 11:57:50;;;;;;;6.75;3.03;;;;;;;32.92;20.43;101563.47;4938602;29;20074;-47
2022/06/03 12:00:20;;;;;;;6.20;3.50;;;;;;;32.91;18.77;101564.44;4938459;29;20492;-49
2022/06/03 12:02:50;;;;;;;9.40;4.43;;;;;;;32.62;19.55;101565.94;4938328;29;20078;-50
2022/06/03 12:05:21;;;;;;;6.70;3.72;;;;;;;32.41;19.94;101574.13;4938323;29;20050;-47
2022/06/03 12:08:05;;;;;;;7.50;3.65;;;;;;;33.14;19.85;101567.66;4937350;29;20024;-50
2022/06/03 12:14:23;;;;;;;;;;;;;;;34.60;20.43;101573.66;4929748;29;20087;-50
2022/06/03 12:16:55;;;;;;;6.47;3.97;;;;;;;33.63;18.45;101572.97;4937841;29;20388;-49
2022/06/03 12:19:45;;;;;;;5.05;3.25;;;;;;;33.81;18.98;101579.09;4938198;29;20024;-47
2022/06/03 12:22:19;;;;;;;5.18;3.67;;;;;;;33.68;19.21;101562.03;4937152;29;20048;-50
2022/06/03 12:24:52;;;;;;;9.05;4.18;;;;;;;34.05;18.72;101559.06;4937847;29;20450;-46
2022/06/03 12:27:23;;;;;;;6.80;4.07;;;;;;;33.96;18.68;101557.81;4938035;29;20042;-49
2022/06/03 12:30:05;;;;;;;7.50;4.10;;;;;;;34.52;18.91;101551.88;4937224;29;20098;-50
2022/06/03 12:32:32;;;;;;;8.82;3.95;;;;;;;34.21;18.45;101546.50;4937897;29;20051;-50
2022/06/03 12:35:35;;;;;;;9.43;4.05;;;;;;;34.34;19.69;101548.50;4937714;29;20038;-49
2022/06/03 12:38:19;;;;;;;8.85;3.63;;;;;;;33.54;21.42;101538.75;4937838;29;20054;-49
2022/06/03 12:40:46;;;;;;;5.50;3.60;;;;;;;33.42;19.86;101534.13;4937528;29;20486;-49
2022/06/03 12:43:22;;;;;;;8.88;4.25;;;;;;;32.74;20.70;101533.28;4936704;29;20106;-49
2022/06/03 12:46:01;;;;;;;6.00;3.42;;;;;;;32.38;21.67;101526.25;4937741;29;20063;-50